Time;durP1;ratioP1;P1;durP2;ratioP2;P2;SDS_P1;SDS_P2;PMS_P1;PMS_P2;Temp;Humidity;BMP_temperature;BMP_pressure;BME280_temperature;BME280_humidity;BME280_pressure;Samples;Min_cycle;Max_cycle;Signal;HPM_P1;HPM_P2
2023/06/08 00:00:58;;;;;;;1.90;1.80;;;;;;;21.89;59.14;97325.91;5060374;28;20243;-28
2023/06/08 00:03:26;;;;;;;2.00;1.90;;;;;;;21.89;59.06;97325.91;5065779;28;20235;-28
2023/06/08 00:05:53;;;;;;;2.00;1.90;;;;;;;21.88;59.24;97324.19;5053500;28;20248;-27
2023/06/08 00:08:20;;;;;;;2.00;1.90;;;;;;;21.88;59.06;97322.50;5058767;28;20212;-28
2023/06/08 00:10:47;;;;;;;1.83;1.73;;;;;;;21.87;59.17;97322.47;5053190;28;20229;-28
2023/06/08 00:13:14;;;;;;;1.83;1.73;;;;;;;21.87;59.07;97325.00;5052994;28;20216;-28
2023/06/08 00:15:40;;;;;;;2.07;1.97;;;;;;;21.70;59.27;97296.38;5054042;28;20204;-29
2023/06/08 00:18:08;;;;;;;1.97;1.87;;;;;;;21.86;58.86;97329.25;5059848;28;20209;-29
2023/06/08 00:20:35;;;;;;;2.17;1.97;;;;;;;21.86;58.99;97329.25;5060877;28;20311;-32
2023/06/08 00:23:05;;;;;;;2.10;2.00;;;;;;;21.86;59.07;97315.59;5035752;28;20211;-28
2023/06/08 00:25:31;;;;;;;2.03;1.93;;;;;;;21.87;59.73;97315.63;5060873;28;20226;-30
2023/06/08 00:27:58;;;;;;;2.00;1.90;;;;;;;21.84;59.22;97305.31;5053088;28;20601;-33
2023/06/08 00:30:25;;;;;;;2.10;2.00;;;;;;;21.87;59.08;97312.22;5052537;28;20225;-28
2023/06/08 00:32:51;;;;;;;2.00;1.90;;;;;;;21.88;59.12;97312.25;5050811;28;20209;-28
2023/06/08 00:35:18;;;;;;;1.97;1.87;;;;;;;21.87;59.07;97310.50;5059828;28;20197;-29
2023/06/08 00:37:45;;;;;;;2.00;1.90;;;;;;;21.88;59.11;97307.16;5058678;28;20212;-28
2023/06/08 00:40:12;;;;;;;1.80;1.70;;;;;;;21.88;58.84;97312.25;5056482;28;20224;-28
2023/06/08 00:42:38;;;;;;;1.93;1.83;;;;;;;21.89;59.10;97311.41;5053850;28;20240;-28
2023/06/08 00:45:05;;;;;;;2.03;1.93;;;;;;;21.89;59.20;97308.84;5062226;28;20227;-28
2023/06/08 00:47:32;;;;;;;2.00;1.90;;;;;;;21.87;59.15;97302.00;5045988;28;20209;-28
2023/06/08 00:49:59;;;;;;;1.90;1.80;;;;;;;21.89;59.02;97311.41;5007835;28;20233;-28
2023/06/08 00:52:25;;;;;;;1.90;1.80;;;;;;;21.89;58.89;97307.97;5041563;28;20205;-28
2023/06/08 00:54:54;;;;;;;2.00;1.90;;;;;;;21.88;59.22;97307.16;5052076;28;20571;-28
2023/06/08 00:57:21;;;;;;;2.00;1.90;;;;;;;21.86;58.96;97301.13;5063816;28;20201;-28
2023/06/08 00:59:49;;;;;;;2.40;2.20;;;;;;;21.89;59.15;97306.31;5059870;28;20200;-29
2023/06/08 01:02:17;;;;;;;2.17;2.07;;;;;;;21.88;59.18;97301.16;5035302;28;20212;-28
2023/06/08 01:04:45;;;;;;;2.10;2.00;;;;;;;21.89;59.02;97295.19;5033803;28;20215;-28
2023/06/08 01:07:41;;;;;;;2.40;2.23;;;;;;;21.87;59.05;97296.88;5051667;28;20225;-29
2023/06/08 01:10:14;;;;;;;2.00;1.80;;;;;;;21.87;58.88;97296.88;5042613;28;20236;-28
2023/06/08 01:13:08;;;;;;;1.90;1.80;;;;;;;21.88;59.04;97303.72;5028417;28;20204;-28
2023/06/08 01:15:40;;;;;;;1.90;1.80;;;;;;;21.86;59.01;97300.25;5035045;28;20201;-28
2023/06/08 01:18:07;;;;;;;2.00;1.90;;;;;;;21.88;58.95;97304.59;5023578;28;20205;-29
2023/06/08 01:20:42;;;;;;;2.07;1.97;;;;;;;21.85;59.22;97301.94;5051400;28;20257;-32
2023/06/08 01:23:10;;;;;;;1.93;1.83;;;;;;;21.85;59.24;97290.84;5039248;28;20666;-29
2023/06/08 01:25:37;;;;;;;2.00;1.90;;;;;;;21.88;59.19;97312.25;5042173;28;20216;-29
2023/06/08 01:28:12;;;;;;;1.97;1.87;;;;;;;21.87;59.22;97302.00;5050034;28;20205;-29
2023/06/08 01:30:40;;;;;;;2.10;2.00;;;;;;;21.88;59.11;97302.03;5054197;28;20266;-28
2023/06/08 01:33:08;;;;;;;2.00;1.90;;;;;;;21.87;59.20;97299.44;5056853;28;20204;-28
2023/06/08 01:35:35;;;;;;;2.03;1.93;;;;;;;21.86;59.24;97295.13;5061308;28;20212;-29
2023/06/08 01:38:23;;;;;;;2.03;1.93;;;;;;;21.82;59.30;97290.75;5034592;28;20208;-28
2023/06/08 01:40:50;;;;;;;2.00;1.90;;;;;;;21.80;59.26;97288.16;5031903;28;20699;-28
2023/06/08 01:43:17;;;;;;;1.90;1.80;;;;;;;21.85;59.21;97295.97;5045773;28;20699;-28
2023/06/08 01:45:46;;;;;;;2.00;1.90;;;;;;;21.80;59.12;97287.28;5040760;28;20680;-29
2023/06/08 01:48:12;;;;;;;1.90;1.80;;;;;;;21.86;59.11;97290.88;5025938;28;20703;-28
2023/06/08 01:50:39;;;;;;;2.10;2.00;;;;;;;21.87;59.03;97289.19;5027349;28;20274;-28
2023/06/08 01:53:06;;;;;;;2.10;2.00;;;;;;;21.89;59.02;97287.53;5058915;28;20682;-28
2023/06/08 01:55:32;;;;;;;2.00;1.90;;;;;;;21.88;58.68;97281.56;5059167;28;20259;-29
2023/06/08 01:57:59;;;;;;;1.93;1.83;;;;;;;21.88;59.15;97285.81;5062340;28;20216;-28
2023/06/08 02:00:26;;;;;;;2.00;1.90;;;;;;;21.88;59.03;97280.69;5056905;28;20224;-28
2023/06/08 02:02:52;;;;;;;2.13;2.03;;;;;;;21.90;59.01;97289.28;5037047;28;20284;-30
2023/06/08 02:05:19;;;;;;;2.00;1.90;;;;;;;21.89;59.20;97287.53;5058056;28;20204;-28
2023/06/08 02:07:46;;;;;;;2.20;2.10;;;;;;;21.88;59.30;97284.13;5057578;28;20201;-27
2023/06/08 02:10:13;;;;;;;2.00;1.90;;;;;;;21.89;59.10;97283.28;5063062;28;20262;-29
2023/06/08 02:12:40;;;;;;;2.00;1.90;;;;;;;21.87;58.99;97279.81;5040972;28;20201;-28
2023/06/08 02:15:07;;;;;;;2.50;2.30;;;;;;;21.83;58.95;97278.00;5050987;28;20205;-28
2023/06/08 02:17:35;;;;;;;2.40;2.30;;;;;;;21.88;59.27;97291.78;5051240;28;20213;-29
2023/06/08 02:20:06;;;;;;;2.10;2.00;;;;;;;21.88;59.07;97285.81;5062755;28;20228;-28
2023/06/08 02:22:35;;;;;;;2.30;2.20;;;;;;;21.88;59.13;97293.47;5054867;28;20205;-28
2023/06/08 02:25:02;;;;;;;2.40;2.20;;;;;;;21.88;59.18;97296.91;5059157;28;20263;-28
2023/06/08 02:27:29;;;;;;;2.10;2.00;;;;;;;21.88;59.02;97290.91;5058047;28;20277;-28
2023/06/08 02:29:56;;;;;;;2.13;2.03;;;;;;;21.88;59.19;97293.47;5056437;28;20564;-28
2023/06/08 02:32:23;;;;;;;2.20;2.10;;;;;;;21.86;59.03;97290.88;5048842;28;20205;-28
2023/06/08 02:34:55;;;;;;;2.10;2.00;;;;;;;21.88;59.10;97298.59;5061679;28;20238;-29
2023/06/08 02:37:23;;;;;;;2.60;2.40;;;;;;;21.88;59.18;97301.16;5058981;28;20729;-29
2023/06/08 02:39:50;;;;;;;2.40;2.20;;;;;;;21.85;59.14;97290.84;5058365;28;20284;-28
2023/06/08 02:42:20;;;;;;;2.37;2.23;;;;;;;21.84;58.96;97299.34;5057995;28;20287;-28
2023/06/08 02:44:47;;;;;;;2.10;2.00;;;;;;;21.86;58.97;97295.13;5056081;28;20201;-29
2023/06/08 02:47:14;;;;;;;2.10;1.90;;;;;;;21.87;59.27;97295.16;5051915;28;20273;-29
2023/06/08 02:49:41;;;;;;;2.10;2.00;;;;;;;21.86;59.12;97293.44;5047449;28;20259;-28
2023/06/08 02:52:08;;;;;;;2.10;2.00;;;;;;;21.85;59.26;97290.84;5064838;28;20209;-29
2023/06/08 02:54:34;;;;;;;2.50;2.30;;;;;;;21.85;58.99;97291.72;5051985;28;20239;-29
2023/06/08 02:57:01;;;;;;;2.20;2.10;;;;;;;21.85;58.88;97294.28;5050740;28;20205;-29
2023/06/08 02:59:29;;;;;;;2.27;2.17;;;;;;;21.84;59.23;97299.34;5052957;28;20551;-29
2023/06/08 03:01:56;;;;;;;2.37;2.17;;;;;;;21.83;59.34;97292.47;5058711;28;20224;-28
2023/06/08 03:04:24;;;;;;;2.40;2.20;;;;;;;21.83;59.41;97289.94;5053743;28;20235;-28
2023/06/08 03:06:54;;;;;;;2.67;2.47;;;;;;;21.85;58.66;97298.50;5053876;28;20220;-29
2023/06/08 03:09:21;;;;;;;2.20;2.10;;;;;;;21.86;59.11;97290.88;5058083;28;20234;-28
2023/06/08 03:11:49;;;;;;;2.20;2.10;;;;;;;21.88;59.22;97296.91;5055548;28;20228;-28
2023/06/08 03:14:18;;;;;;;2.20;2.10;;;;;;;21.88;58.89;97293.47;5058773;28;20251;-28
2023/06/08 03:16:45;;;;;;;2.30;2.20;;;;;;;21.88;59.17;97289.22;5060094;28;20621;-28
2023/06/08 03:19:13;;;;;;;2.20;2.10;;;;;;;21.88;59.16;97288.34;5066162;28;20212;-28
2023/06/08 03:21:41;;;;;;;2.27;2.07;;;;;;;21.89;59.19;97288.41;5058684;28;20270;-29
2023/06/08 03:24:08;;;;;;;2.43;2.23;;;;;;;21.88;59.03;97286.69;5047173;28;20263;-28
2023/06/08 03:26:36;;;;;;;2.20;2.10;;;;;;;21.88;59.19;97288.34;5053931;28;20248;-28
2023/06/08 03:29:02;;;;;;;2.50;2.30;;;;;;;21.88;59.05;97294.34;5056047;28;20235;-28
2023/06/08 03:31:36;;;;;;;2.50;2.30;;;;;;;21.88;59.18;97296.03;5053686;28;20236;-28
2023/06/08 03:34:04;;;;;;;2.53;2.40;;;;;;;21.87;59.29;97296.88;5056407;28;20201;-28
2023/06/08 03:36:35;;;;;;;2.30;2.20;;;;;;;21.85;59.27;97303.63;5053806;28;20668;-29
2023/06/08 03:39:02;;;;;;;2.07;1.97;;;;;;;21.86;59.18;97302.78;5053484;28;20216;-28
2023/06/08 03:41:28;;;;;;;2.67;2.47;;;;;;;21.87;59.57;97305.38;5054750;28;20225;-28
2023/06/08 03:43:55;;;;;;;2.37;2.27;;;;;;;21.87;59.16;97313.06;5067752;28;20215;-28
2023/06/08 03:46:24;;;;;;;2.33;2.23;;;;;;;21.86;59.20;97313.91;5061697;28;20243;-29
2023/06/08 03:48:51;;;;;;;2.20;2.10;;;;;;;21.86;59.25;97313.03;5044908;28;20224;-28
2023/06/08 03:51:20;;;;;;;2.23;2.10;;;;;;;21.85;59.23;97311.31;5064991;28;20270;-28
2023/06/08 03:53:47;;;;;;;2.20;2.10;;;;;;;21.87;59.34;97317.34;5056719;28;20204;-28
2023/06/08 03:56:14;;;;;;;2.03;1.93;;;;;;;21.85;59.10;97314.75;5065455;28;20224;-29
2023/06/08 03:58:44;;;;;;;2.23;2.13;;;;;;;21.62;59.14;97272.34;5053242;28;20201;-29
2023/06/08 04:01:11;;;;;;;2.20;2.10;;;;;;;21.86;59.08;97316.47;5054205;28;20251;-29
2023/06/08 04:03:38;;;;;;;2.60;2.40;;;;;;;21.86;59.09;97313.03;5065576;28;20262;-28
2023/06/08 04:06:11;;;;;;;2.60;2.40;;;;;;;21.85;59.26;97319.84;5053407;28;20235;-29
2023/06/08 04:08:39;;;;;;;2.30;2.20;;;;;;;21.84;59.24;97318.09;5053331;28;20262;-28
2023/06/08 04:11:07;;;;;;;2.17;2.07;;;;;;;21.85;59.35;97311.31;5060568;28;20235;-28
2023/06/08 04:13:36;;;;;;;2.20;2.10;;;;;;;21.86;59.12;97313.03;5057483;28;20256;-29
2023/06/08 04:16:07;;;;;;;2.50;2.30;;;;;;;21.86;59.37;97315.59;5052751;28;20584;-28
2023/06/08 04:18:35;;;;;;;2.43;2.30;;;;;;;21.83;59.33;97311.28;5052514;28;20220;-29
2023/06/08 04:21:02;;;;;;;2.63;2.43;;;;;;;21.83;59.35;97318.06;5052733;28;20343;-29
2023/06/08 04:23:30;;;;;;;2.20;2.00;;;;;;;21.84;59.44;97324.94;5053206;28;20200;-29
2023/06/08 04:25:57;;;;;;;2.33;2.20;;;;;;;21.83;59.38;97326.63;5056941;28;20225;-34
2023/06/08 04:28:24;;;;;;;2.27;2.13;;;;;;;21.84;59.16;97322.38;5052682;28;20671;-29
2023/06/08 04:30:50;;;;;;;2.23;2.13;;;;;;;21.84;59.19;97330.91;5053014;28;20750;-29
2023/06/08 04:33:17;;;;;;;2.10;2.00;;;;;;;21.86;59.28;97318.16;5053720;28;20638;-28
2023/06/08 04:35:44;;;;;;;2.30;2.20;;;;;;;21.87;59.50;97327.56;5052775;28;20200;-28
2023/06/08 04:38:16;;;;;;;2.50;2.30;;;;;;;21.86;59.07;97320.69;5055138;28;20193;-28
2023/06/08 04:40:53;;;;;;;2.50;2.30;;;;;;;21.85;59.02;97321.53;5052289;28;20406;-29
2023/06/08 04:43:21;;;;;;;2.20;2.10;;;;;;;21.88;59.09;97319.94;5035936;28;20204;-29
2023/06/08 04:45:57;;;;;;;2.30;2.20;;;;;;;21.86;59.07;97326.69;5052407;28;20224;-29
2023/06/08 04:48:27;;;;;;;2.30;2.20;;;;;;;21.87;59.07;97328.41;5056709;28;20854;-29
2023/06/08 04:50:59;;;;;;;2.47;2.30;;;;;;;21.89;59.00;97328.44;5056131;28;20227;-28
2023/06/08 04:53:26;;;;;;;2.30;2.20;;;;;;;21.88;59.25;97325.06;5059529;28;20243;-29
2023/06/08 04:55:57;;;;;;;2.63;2.47;;;;;;;21.87;58.99;97332.69;5061082;28;20197;-28
2023/06/08 04:58:25;;;;;;;2.57;2.37;;;;;;;21.88;59.13;97325.06;5058928;28;20233;-28
2023/06/08 05:00:52;;;;;;;2.53;2.33;;;;;;;21.88;59.12;97331.84;5059977;28;20271;-28
2023/06/08 05:03:19;;;;;;;2.40;2.30;;;;;;;21.87;59.11;97332.69;5054377;28;20240;-28
2023/06/08 05:05:47;;;;;;;2.50;2.30;;;;;;;21.82;59.19;97324.91;5052103;28;20280;-29
2023/06/08 05:08:13;;;;;;;2.17;2.07;;;;;;;21.87;59.34;97335.25;5047206;28;20256;-28
2023/06/08 05:10:40;;;;;;;2.40;2.30;;;;;;;21.87;59.30;97332.69;5052076;28;20278;-28
2023/06/08 05:13:07;;;;;;;2.30;2.20;;;;;;;21.87;59.15;97338.66;5060199;28;20210;-29
2023/06/08 05:15:33;;;;;;;2.50;2.40;;;;;;;21.87;59.24;97333.53;5053199;28;20255;-29
2023/06/08 05:18:00;;;;;;;2.33;2.23;;;;;;;21.86;58.73;97334.38;5056590;28;20630;-29
2023/06/08 05:20:28;;;;;;;2.50;2.40;;;;;;;21.86;59.08;97343.72;5053868;28;20220;-28
2023/06/08 05:22:55;;;;;;;2.50;2.30;;;;;;;21.82;59.40;97334.25;5051704;28;20664;-29
2023/06/08 05:25:22;;;;;;;2.00;1.90;;;;;;;21.86;59.34;97343.72;5059336;28;20809;-29
2023/06/08 05:27:48;;;;;;;2.17;2.07;;;;;;;21.86;59.37;97336.94;5054703;28;20309;-30
2023/06/08 05:30:15;;;;;;;2.37;2.27;;;;;;;21.85;59.33;97331.78;5054498;28;20216;-29
2023/06/08 05:32:42;;;;;;;2.40;2.20;;;;;;;21.83;59.02;97331.72;5053016;28;20243;-29
2023/06/08 05:35:08;;;;;;;2.27;2.17;;;;;;;21.86;59.18;97333.50;5051658;28;20204;-29
2023/06/08 05:37:35;;;;;;;2.40;2.30;;;;;;;21.87;59.16;97337.81;5058232;28;20199;-28
2023/06/08 05:40:02;;;;;;;2.50;2.30;;;;;;;21.86;59.31;97336.94;5052758;28;20480;-28
2023/06/08 05:42:29;;;;;;;2.30;2.20;;;;;;;21.86;59.21;97346.28;5054147;28;20829;-28
2023/06/08 05:44:58;;;;;;;2.33;2.13;;;;;;;21.85;59.35;97334.34;5051331;28;20232;-28
2023/06/08 05:47:24;;;;;;;2.40;2.30;;;;;;;21.82;59.33;97330.03;5055100;28;20217;-28
2023/06/08 05:49:56;;;;;;;2.53;2.33;;;;;;;21.85;59.21;97326.66;5051018;28;20211;-28
2023/06/08 05:52:22;;;;;;;2.40;2.20;;;;;;;21.85;58.76;97331.78;5059441;28;20201;-29
2023/06/08 05:54:50;;;;;;;2.53;2.33;;;;;;;21.84;59.31;97330.91;5051122;28;20201;-29
2023/06/08 05:57:17;;;;;;;2.40;2.30;;;;;;;21.82;59.16;97326.59;5059796;28;20227;-28
2023/06/08 05:59:43;;;;;;;2.73;2.53;;;;;;;21.84;59.27;97330.91;5058081;28;20251;-29
2023/06/08 06:02:11;;;;;;;2.07;1.97;;;;;;;21.87;58.86;97336.09;5052780;28;20215;-28
2023/06/08 06:04:37;;;;;;;2.47;2.27;;;;;;;21.88;59.08;97344.66;5057947;28;20258;-29
2023/06/08 06:07:05;;;;;;;2.20;2.10;;;;;;;21.88;59.24;97329.28;5059429;28;20221;-28
2023/06/08 06:09:32;;;;;;;2.33;2.23;;;;;;;21.88;59.02;97325.06;5034359;28;20283;-28
2023/06/08 06:11:59;;;;;;;3.60;2.50;;;;;;;21.88;59.20;97327.63;5052316;28;20282;-28
2023/06/08 06:14:27;;;;;;;2.20;2.10;;;;;;;21.90;59.20;97325.09;5053464;28;20197;-28
2023/06/08 06:16:54;;;;;;;2.60;2.40;;;;;;;21.89;59.13;97331.00;5049308;28;20247;-34
2023/06/08 06:19:36;;;;;;;2.17;2.07;;;;;;;21.87;59.19;97330.97;5052850;28;20565;-28
2023/06/08 06:22:05;;;;;;;2.43;2.30;;;;;;;21.88;59.29;97334.41;5058370;28;20684;-28
2023/06/08 06:24:31;;;;;;;2.47;2.37;;;;;;;21.87;59.08;97330.97;5053565;28;20205;-28
2023/06/08 06:26:58;;;;;;;2.40;2.20;;;;;;;21.86;59.57;97334.38;5050756;28;20348;-29
2023/06/08 06:29:25;;;;;;;2.00;1.90;;;;;;;21.88;59.30;97339.53;5036901;28;20207;-28
2023/06/08 06:31:51;;;;;;;2.60;2.40;;;;;;;21.85;58.96;97335.22;5051246;28;20256;-28
2023/06/08 06:34:19;;;;;;;2.60;2.40;;;;;;;21.87;59.22;97346.31;5044462;28;20205;-29
2023/06/08 06:36:46;;;;;;;2.70;2.50;;;;;;;21.88;59.33;97344.66;5052621;28;20193;-28
2023/06/08 06:39:13;;;;;;;2.57;2.37;;;;;;;21.87;59.61;97348.03;5061256;28;20219;-29
2023/06/08 06:41:40;;;;;;;2.27;2.17;;;;;;;21.86;59.24;97343.72;5063994;28;20221;-28
2023/06/08 06:44:07;;;;;;;2.57;2.37;;;;;;;21.84;59.31;97330.91;5056924;28;20204;-28
2023/06/08 06:46:34;;;;;;;2.40;2.20;;;;;;;21.87;59.61;97332.69;5058148;28;20212;-28
2023/06/08 06:49:01;;;;;;;2.43;2.30;;;;;;;21.87;59.42;97343.75;5055430;28;20205;-29
2023/06/08 06:51:28;;;;;;;2.30;2.20;;;;;;;21.87;59.36;97336.09;5061358;28;20224;-28
2023/06/08 06:53:54;;;;;;;2.53;2.40;;;;;;;21.85;59.18;97332.66;5057500;28;20267;-28
2023/06/08 06:56:21;;;;;;;2.63;2.43;;;;;;;21.86;59.32;97336.94;5054647;28;20205;-28
2023/06/08 06:58:48;;;;;;;2.30;2.20;;;;;;;21.86;59.05;97336.06;5055159;28;20201;-28
2023/06/08 07:01:15;;;;;;;2.20;2.10;;;;;;;21.86;59.07;97342.03;5065288;28;20231;-28
2023/06/08 07:03:43;;;;;;;2.53;2.33;;;;;;;21.79;59.08;97332.47;5059664;28;20214;-29
2023/06/08 07:06:10;;;;;;;2.40;2.20;;;;;;;21.84;59.44;97341.13;5041222;28;20204;-28
2023/06/08 07:08:37;;;;;;;2.40;2.30;;;;;;;21.80;59.45;97341.88;5056548;28;20220;-28
2023/06/08 07:11:04;;;;;;;2.83;2.63;;;;;;;21.82;59.45;97342.81;5041415;28;20286;-28
2023/06/08 07:13:30;;;;;;;2.30;2.20;;;;;;;21.83;59.26;97344.53;5057371;28;20197;-28
2023/06/08 07:15:57;;;;;;;2.20;2.10;;;;;;;21.85;59.25;97347.13;5054302;28;20200;-29
2023/06/08 07:18:24;;;;;;;2.20;2.10;;;;;;;21.80;58.87;97333.34;5058199;28;20205;-28
2023/06/08 07:20:51;;;;;;;2.37;2.27;;;;;;;21.86;59.26;97333.50;5054010;28;20649;-29
2023/06/08 07:23:17;;;;;;;2.37;2.27;;;;;;;21.86;59.40;97329.25;5054039;28;20208;-28
2023/06/08 07:26:04;;;;;;;2.50;2.30;;;;;;;21.85;59.33;97329.22;5057278;28;20204;-28
2023/06/08 07:28:53;;;;;;;2.80;2.60;;;;;;;21.86;58.95;97334.38;5048422;28;20217;-29
2023/06/08 07:31:20;;;;;;;2.80;2.60;;;;;;;21.88;59.14;97337.84;5056897;28;20773;-28
2023/06/08 07:33:47;;;;;;;2.30;2.20;;;;;;;21.88;59.26;97340.41;5060216;28;20208;-34
2023/06/08 07:36:14;;;;;;;2.47;2.30;;;;;;;21.87;59.02;97330.13;5057365;28;20209;-28
2023/06/08 07:38:40;;;;;;;2.87;2.67;;;;;;;21.87;59.50;97336.09;5053855;28;20201;-28
2023/06/08 07:41:07;;;;;;;2.50;2.30;;;;;;;21.87;59.32;97341.22;5057651;28;20236;-29
2023/06/08 07:43:33;;;;;;;2.70;2.50;;;;;;;21.88;59.25;97336.97;5053824;28;20200;-28
2023/06/08 07:46:00;;;;;;;2.40;2.20;;;;;;;21.86;59.33;97329.25;5054200;28;20204;-28
2023/06/08 07:48:27;;;;;;;2.30;2.20;;;;;;;21.87;59.38;97325.84;5055686;28;20274;-28
2023/06/08 07:50:53;;;;;;;2.50;2.30;;;;;;;21.87;59.59;97330.97;5053005;28;20225;-28
2023/06/08 07:53:20;;;;;;;3.40;2.70;;;;;;;21.88;59.33;97331.84;5063110;28;20200;-28
2023/06/08 07:55:47;;;;;;;2.30;2.20;;;;;;;21.87;59.11;97330.13;5045747;28;20263;-28
2023/06/08 07:58:13;;;;;;;3.13;2.23;;;;;;;21.87;59.25;97325.00;5055642;28;20201;-28
2023/06/08 08:00:40;;;;;;;2.67;2.47;;;;;;;21.82;59.20;97321.47;5056591;28;20598;-28
2023/06/08 08:03:07;;;;;;;2.53;2.33;;;;;;;21.87;59.32;97320.75;5054159;28;20211;-28
2023/06/08 08:05:34;;;;;;;2.83;2.63;;;;;;;21.86;59.34;97316.47;5057913;28;20567;-29
2023/06/08 08:08:01;;;;;;;2.63;2.43;;;;;;;21.87;59.13;97319.91;5054464;28;20220;-29
2023/06/08 08:10:27;;;;;;;2.77;2.17;;;;;;;21.87;59.08;97317.34;5057055;28;20224;-28
2023/06/08 08:12:54;;;;;;;2.80;2.60;;;;;;;21.86;59.54;97318.16;5056467;28;20624;-28
2023/06/08 08:15:22;;;;;;;2.50;2.40;;;;;;;21.87;59.33;97315.63;5056253;28;20204;-28
2023/06/08 08:17:49;;;;;;;2.27;2.13;;;;;;;21.63;59.21;97274.94;5058590;28;20204;-28
2023/06/08 08:20:16;;;;;;;2.67;2.47;;;;;;;21.87;59.23;97312.22;5052968;28;20621;-29
2023/06/08 08:22:43;;;;;;;2.47;2.37;;;;;;;21.86;59.18;97313.03;5056746;28;20220;-29
2023/06/08 08:25:10;;;;;;;2.67;2.47;;;;;;;21.87;59.53;97320.75;5056053;28;20214;-29
2023/06/08 08:27:36;;;;;;;2.50;2.40;;;;;;;21.84;59.28;97313.00;5063113;28;20299;-28
2023/06/08 08:30:03;;;;;;;2.40;2.30;;;;;;;21.84;59.26;97312.16;5055347;28;20255;-28
2023/06/08 08:32:31;;;;;;;2.40;2.20;;;;;;;21.85;59.09;97312.19;5052799;28;20208;-29
2023/06/08 08:34:57;;;;;;;2.63;2.43;;;;;;;21.84;59.14;97309.59;5055892;28;20200;-29
2023/06/08 08:37:24;;;;;;;2.40;2.30;;;;;;;21.85;59.18;97313.88;5052401;28;20204;-28
2023/06/08 08:39:50;;;;;;;2.30;2.20;;;;;;;21.85;59.34;97317.31;5060843;28;20687;-29
2023/06/08 08:42:26;;;;;;;2.33;2.23;;;;;;;21.86;59.11;97307.91;5060521;28;20679;-29
2023/06/08 08:44:53;;;;;;;2.47;2.27;;;;;;;21.88;59.21;97308.81;5036775;28;20607;-29
2023/06/08 08:47:26;;;;;;;2.40;2.30;;;;;;;21.88;59.35;97314.81;5060308;28;20229;-28
2023/06/08 08:50:01;;;;;;;2.70;2.50;;;;;;;21.87;59.24;97302.84;5052046;28;20201;-29
2023/06/08 08:52:29;;;;;;;2.67;2.47;;;;;;;21.90;59.09;97304.63;5059423;28;20663;-28
2023/06/08 08:54:57;;;;;;;2.30;2.20;;;;;;;21.89;59.11;97306.31;5039081;28;20201;-29
2023/06/08 08:57:27;;;;;;;2.13;2.03;;;;;;;21.89;59.38;97298.63;5055206;28;20208;-28
2023/06/08 08:59:55;;;;;;;2.17;2.07;;;;;;;21.89;59.28;97303.75;5056960;28;20201;-28
2023/06/08 09:02:21;;;;;;;2.30;2.20;;;;;;;21.85;59.18;97299.41;5036212;28;20270;-29
2023/06/08 09:04:49;;;;;;;2.67;2.47;;;;;;;21.89;59.15;97303.75;5034591;28;20219;-28
2023/06/08 09:07:20;;;;;;;2.43;2.33;;;;;;;21.89;59.21;97311.41;5046000;28;20232;-28
2023/06/08 09:10:14;;;;;;;2.47;2.27;;;;;;;21.89;59.20;97300.31;5058779;28;20622;-28
2023/06/08 09:12:42;;;;;;;2.30;2.20;;;;;;;21.90;59.16;97307.19;5057647;28;20288;-29
2023/06/08 09:15:09;;;;;;;2.20;2.10;;;;;;;21.88;59.32;97303.72;5053020;28;20212;-29
2023/06/08 09:17:38;;;;;;;2.13;2.03;;;;;;;21.89;59.34;97301.19;5063686;28;20251;-29
2023/06/08 09:20:10;;;;;;;2.20;2.10;;;;;;;21.89;59.32;97302.88;5051592;28;20232;-28
2023/06/08 09:22:40;;;;;;;2.27;2.17;;;;;;;21.89;59.12;97292.63;5059784;28;20247;-29
2023/06/08 09:25:43;;;;;;;2.20;2.10;;;;;;;21.89;59.13;97292.63;5051634;28;20322;-28
2023/06/08 09:28:24;;;;;;;2.50;2.40;;;;;;;21.87;59.19;97284.91;5051303;28;20217;-28
2023/06/08 09:30:52;;;;;;;2.33;2.23;;;;;;;21.86;59.23;97279.78;5051484;28;20225;-29
2023/06/08 09:33:24;;;;;;;2.50;2.40;;;;;;;21.88;59.20;97283.25;5061674;28;20201;-29
2023/06/08 09:35:57;;;;;;;2.73;2.53;;;;;;;21.88;59.21;97285.81;5056673;28;20594;-28
2023/06/08 09:38:27;;;;;;;2.67;2.47;;;;;;;21.87;59.30;97278.97;5051371;28;20350;-29
2023/06/08 09:41:16;;;;;;;2.40;2.30;;;;;;;21.88;59.21;97284.13;5050637;28;20290;-29
2023/06/08 09:43:44;;;;;;;2.20;2.10;;;;;;;21.81;59.39;97258.31;5052355;28;20203;-29
2023/06/08 09:46:17;;;;;;;2.43;2.23;;;;;;;21.87;59.19;97271.28;5055838;28;20731;-28
2023/06/08 09:48:53;;;;;;;2.67;2.47;;;;;;;21.86;59.20;97282.31;5058975;28;20224;-28
2023/06/08 09:51:23;;;;;;;2.53;2.40;;;;;;;21.84;59.25;97266.09;5052275;28;20228;-28
2023/06/08 09:53:55;;;;;;;2.50;2.30;;;;;;;21.84;59.18;97266.09;5051066;28;20211;-29
2023/06/08 09:56:22;;;;;;;2.43;2.27;;;;;;;21.85;59.35;97267.81;5052148;28;20204;-32
2023/06/08 09:58:56;;;;;;;2.33;2.23;;;;;;;21.86;59.25;97266.97;5059668;28;20193;-28
2023/06/08 10:01:46;;;;;;;2.30;2.20;;;;;;;21.84;59.38;97260.97;5059131;28;20258;-28
2023/06/08 10:04:26;;;;;;;2.20;2.10;;;;;;;21.86;59.28;97261.84;5036737;28;20288;-30
2023/06/08 10:07:01;;;;;;;2.23;2.13;;;;;;;21.82;59.30;97245.59;5051523;28;20200;-29
2023/06/08 10:09:28;;;;;;;2.20;2.10;;;;;;;21.85;59.30;97252.47;5054401;28;20215;-29
2023/06/08 10:11:59;;;;;;;2.30;2.20;;;;;;;21.88;59.30;97257.66;5022080;28;20267;-28
2023/06/08 10:14:26;;;;;;;2.40;2.20;;;;;;;21.89;59.28;97252.56;5055682;28;20208;-28
2023/06/08 10:16:54;;;;;;;2.60;2.40;;;;;;;21.89;59.27;97254.25;5055203;28;20207;-28
2023/06/08 10:19:21;;;;;;;2.30;2.20;;;;;;;21.89;59.10;97254.25;5042729;28;20188;-29
2023/06/08 10:21:48;;;;;;;2.30;2.20;;;;;;;21.88;59.35;97250.84;5055216;28;20733;-28
2023/06/08 10:24:15;;;;;;;2.10;2.00;;;;;;;21.88;59.29;97255.09;5027167;28;20216;-29
2023/06/08 10:26:44;;;;;;;2.37;2.27;;;;;;;21.86;59.03;97246.50;5037610;28;20615;-28
2023/06/08 10:29:11;;;;;;;2.40;2.20;;;;;;;21.88;59.23;97245.75;5053574;28;20220;-28
2023/06/08 10:31:48;;;;;;;2.20;2.10;;;;;;;21.87;59.22;97235.47;5054796;28;20223;-29
2023/06/08 10:34:16;;;;;;;2.20;2.10;;;;;;;21.86;59.42;97234.59;5039550;28;20201;-29
2023/06/08 10:36:43;;;;;;;2.20;2.10;;;;;;;21.87;59.08;97231.19;5055143;28;20594;-29
2023/06/08 10:39:12;;;;;;;2.17;2.07;;;;;;;21.86;59.36;97221.81;5054806;28;20646;-28
2023/06/08 10:41:45;;;;;;;2.23;2.13;;;;;;;21.88;59.12;97221.84;5054709;28;20212;-29
2023/06/08 10:44:40;;;;;;;2.33;2.13;;;;;;;21.87;59.11;97215.84;5055456;28;20231;-29
2023/06/08 10:47:08;;;;;;;2.23;2.13;;;;;;;21.87;59.22;97213.28;5034832;28;20263;-29
2023/06/08 10:49:36;;;;;;;2.57;2.40;;;;;;;21.88;59.21;97214.16;5052652;28;20274;-28
2023/06/08 10:52:21;;;;;;;2.20;2.10;;;;;;;21.88;59.22;97217.59;5052939;28;20239;-28
2023/06/08 10:54:56;;;;;;;2.13;2.03;;;;;;;21.89;59.13;97208.22;5054524;28;20250;-28
2023/06/08 10:57:35;;;;;;;2.10;2.00;;;;;;;21.89;59.17;97214.19;5053438;28;20677;-29
2023/06/08 11:00:26;;;;;;;2.20;2.10;;;;;;;21.88;59.35;97202.25;5054762;28;20220;-28
2023/06/08 11:02:53;;;;;;;2.37;2.23;;;;;;;21.88;59.15;97202.25;5040512;28;20685;-29
2023/06/08 11:05:20;;;;;;;2.20;2.10;;;;;;;21.88;59.17;97199.69;5055863;28;20204;-28
2023/06/08 11:07:47;;;;;;;2.60;2.40;;;;;;;21.89;58.79;97205.66;5060280;28;20276;-29
2023/06/08 11:10:13;;;;;;;2.30;2.20;;;;;;;21.88;59.35;97202.25;5062523;28;20232;-29
2023/06/08 11:12:40;;;;;;;2.00;1.90;;;;;;;21.84;59.07;97197.03;5019860;28;20585;-28
2023/06/08 11:15:07;;;;;;;2.20;2.10;;;;;;;21.87;59.31;97194.53;5054352;28;20586;-29
2023/06/08 11:17:39;;;;;;;2.10;2.00;;;;;;;21.88;59.32;97186.03;5053977;28;20197;-28
2023/06/08 11:20:06;;;;;;;2.50;2.30;;;;;;;21.87;59.39;97184.31;5054142;28;20667;-28
2023/06/08 11:22:33;;;;;;;2.20;2.10;;;;;;;21.87;59.15;97174.91;5057332;28;20200;-29
2023/06/08 11:25:00;;;;;;;2.03;1.93;;;;;;;21.89;59.31;97177.50;5041127;28;20254;-32
2023/06/08 11:27:27;;;;;;;2.50;2.30;;;;;;;21.90;59.05;97171.59;5053915;28;20200;-28
2023/06/08 11:29:53;;;;;;;2.50;2.30;;;;;;;21.90;59.12;97182.66;5053958;28;20259;-29
2023/06/08 11:32:20;;;;;;;2.37;2.27;;;;;;;21.92;59.23;97182.69;5053738;28;20556;-29
2023/06/08 11:34:49;;;;;;;2.13;2.03;;;;;;;21.92;59.18;97175.00;5030072;28;20201;-28
2023/06/08 11:37:33;;;;;;;2.20;2.10;;;;;;;21.92;59.34;97167.34;5064527;28;20217;-29
2023/06/08 11:40:00;;;;;;;2.50;2.30;;;;;;;21.91;59.28;97170.75;5053710;28;20248;-28
2023/06/08 11:42:26;;;;;;;2.00;1.90;;;;;;;21.90;59.02;97161.34;5035930;28;20687;-28